Time;durP1;ratioP1;P1;durP2;ratioP2;P2;SDS_P1;SDS_P2;PMS_P1;PMS_P2;Temp;Humidity;BMP_temperature;BMP_pressure;BME280_temperature;BME280_humidity;BME280_pressure;Samples;Min_cycle;Max_cycle;Signal;HPM_P1;HPM_P2
2023/12/02 00:00:41;;;;;;;47.92;27.80;;;0.00;92.40;;;;;;5076694;28;20024;-54
2023/12/02 00:03:07;;;;;;;51.53;27.38;;;0.00;92.40;;;;;;5107663;28;20476;-48
2023/12/02 00:05:34;;;;;;;49.40;26.40;;;0.00;92.40;;;;;;5109152;28;20106;-50
2023/12/02 00:08:00;;;;;;;51.42;28.65;;;0.00;92.40;;;;;;5097129;28;20058;-48
2023/12/02 00:10:28;;;;;;;45.97;26.50;;;0.00;92.40;;;;;;5098425;28;20024;-48
2023/12/02 00:12:57;;;;;;;49.60;26.10;;;0.00;92.40;;;;;;5082457;28;20036;-48
2023/12/02 00:15:24;;;;;;;45.25;24.52;;;0.00;92.60;;;;;;5090213;28;20350;-49
2023/12/02 00:18:04;;;;;;;44.90;24.65;;;0.00;92.50;;;;;;5095175;28;20048;-48
2023/12/02 00:20:32;;;;;;;47.35;25.25;;;0.00;92.60;;;;;;5075536;28;20035;-47
2023/12/02 00:22:57;;;;;;;35.35;23.05;;;0.00;92.70;;;;;;5089766;28;20388;-54
2023/12/02 00:25:24;;;;;;;41.60;23.60;;;0.00;92.60;;;;;;5062409;28;20056;-49
2023/12/02 00:27:51;;;;;;;42.05;22.92;;;0.00;92.60;;;;;;5079894;28;20032;-48
2023/12/02 00:30:19;;;;;;;42.53;23.77;;;0.00;92.60;;;;;;5070785;28;20029;-49
2023/12/02 00:32:46;;;;;;;43.00;22.17;;;0.00;92.50;;;;;;5085446;28;20090;-48
2023/12/02 00:35:19;;;;;;;41.42;22.88;;;0.00;92.70;;;;;;5071012;28;20025;-47
2023/12/02 00:37:46;;;;;;;35.58;21.95;;;0.00;92.70;;;;;;5089331;28;20080;-48
2023/12/02 00:40:13;;;;;;;38.78;24.50;;;0.00;92.70;;;;;;5088430;28;20461;-48
2023/12/02 00:42:41;;;;;;;36.88;21.38;;;0.10;92.80;;;;;;5080409;28;20034;-50
2023/12/02 00:45:08;;;;;;;33.35;22.08;;;0.10;92.80;;;;;;5067427;28;20031;-49
2023/12/02 00:47:33;;;;;;;39.30;21.33;;;0.10;92.70;;;;;;5084810;28;20020;-53
2023/12/02 00:50:00;;;;;;;42.28;23.58;;;0.00;92.70;;;;;;5047822;28;20052;-51
2023/12/02 00:52:27;;;;;;;36.58;22.13;;;0.00;92.70;;;;;;5087000;28;20035;-49
2023/12/02 00:54:55;;;;;;;36.30;20.45;;;0.00;92.60;;;;;;5094870;28;20114;-50
2023/12/02 00:57:22;;;;;;;38.92;21.50;;;0.00;92.80;;;;;;5094620;28;20437;-48
2023/12/02 00:59:53;;;;;;;39.38;21.10;;;0.00;92.90;;;;;;5077096;28;20072;-51
2023/12/02 01:02:19;;;;;;;37.20;21.77;;;0.00;92.90;;;;;;5055184;28;20036;-48
2023/12/02 01:04:46;;;;;;;37.97;22.02;;;0.00;92.80;;;;;;5052693;28;20047;-52
2023/12/02 01:07:16;;;;;;;37.22;22.27;;;0.00;92.90;;;;;;5055094;28;20056;-52
2023/12/02 01:09:43;;;;;;;34.83;19.67;;;0.00;92.90;;;;;;5055118;28;20100;-47
2023/12/02 01:12:10;;;;;;;32.33;19.40;;;0.00;92.90;;;;;;5037174;28;20027;-47
2023/12/02 01:14:41;;;;;;;36.83;21.67;;;0.00;93.00;;;;;;5073318;28;20027;-48
2023/12/02 01:17:06;;;;;;;33.97;19.80;;;0.10;93.00;;;;;;5076158;28;20028;-54
2023/12/02 01:19:35;;;;;;;31.17;19.60;;;0.10;92.90;;;;;;5095066;28;20048;-48
2023/12/02 01:22:02;;;;;;;34.20;20.55;;;0.10;93.00;;;;;;5083506;28;20040;-46
2023/12/02 01:24:30;;;;;;;35.90;22.98;;;0.20;93.00;;;;;;5090609;28;20038;-48
2023/12/02 01:26:57;;;;;;;35.55;21.80;;;0.20;92.90;;;;;;5094704;28;20031;-47
2023/12/02 01:29:23;;;;;;;35.95;22.23;;;0.10;92.90;;;;;;5092704;28;20030;-46
2023/12/02 01:31:53;;;;;;;31.13;19.40;;;0.10;92.80;;;;;;5074711;28;20103;-47
2023/12/02 01:34:20;;;;;;;32.00;19.27;;;0.10;92.80;;;;;;5067021;28;20094;-48
2023/12/02 01:36:48;;;;;;;36.47;21.83;;;0.10;92.80;;;;;;5094657;28;20337;-46
2023/12/02 01:39:14;;;;;;;31.47;19.97;;;0.10;92.80;;;;;;5088916;28;20028;-48
2023/12/02 01:41:42;;;;;;;31.73;19.45;;;0.20;92.80;;;;;;5056383;28;20078;-48
2023/12/02 01:44:14;;;;;;;32.25;20.17;;;0.20;92.80;;;;;;5073826;28;20037;-49
2023/12/02 01:46:42;;;;;;;32.55;20.38;;;0.20;92.80;;;;;;5075748;28;20020;-46
2023/12/02 01:49:19;;;;;;;35.20;21.95;;;0.20;92.80;;;;;;5094839;28;20089;-48
2023/12/02 01:51:47;;;;;;;41.75;23.48;;;0.20;92.80;;;;;;5078069;28;20440;-50
2023/12/02 01:54:15;;;;;;;41.22;23.85;;;0.20;92.70;;;;;;5097630;28;20489;-47
2023/12/02 01:56:42;;;;;;;38.00;22.70;;;0.10;92.70;;;;;;5091008;28;20108;-45
2023/12/02 01:59:12;;;;;;;36.85;21.42;;;0.10;92.80;;;;;;5074574;28;20516;-49
2023/12/02 02:01:39;;;;;;;38.97;21.92;;;0.10;92.90;;;;;;5098185;28;20452;-48
2023/12/02 02:04:06;;;;;;;39.03;21.42;;;0.20;92.90;;;;;;5088487;28;20042;-52
2023/12/02 02:06:34;;;;;;;41.38;22.88;;;0.20;92.90;;;;;;5109829;28;20107;-48
2023/12/02 02:09:01;;;;;;;42.17;24.60;;;0.20;92.90;;;;;;5076990;28;20038;-48
2023/12/02 02:11:29;;;;;;;36.40;20.90;;;0.20;93.00;;;;;;5069230;28;20086;-53
2023/12/02 02:13:56;;;;;;;39.85;22.95;;;0.20;92.90;;;;;;5107725;28;20035;-50
2023/12/02 02:16:26;;;;;;;41.80;23.33;;;0.20;92.80;;;;;;5086884;28;20341;-54
2023/12/02 02:18:54;;;;;;;39.88;21.42;;;0.20;92.80;;;;;;5076833;28;20567;-53
2023/12/02 02:21:22;;;;;;;34.65;20.58;;;0.20;92.80;;;;;;5053081;28;20029;-52
2023/12/02 02:23:49;;;;;;;38.15;22.00;;;0.10;92.80;;;;;;5055551;28;20028;-53
2023/12/02 02:26:15;;;;;;;37.25;19.55;;;0.10;93.00;;;;;;5062182;28;20163;-53
2023/12/02 02:28:44;;;;;;;33.90;19.40;;;0.10;93.00;;;;;;5053845;28;20449;-47
2023/12/02 02:31:11;;;;;;;34.33;19.83;;;0.10;93.00;;;;;;5054357;28;20375;-51
2023/12/02 02:33:38;;;;;;;37.45;20.60;;;0.20;93.00;;;;;;5056136;28;20029;-49
2023/12/02 02:36:06;;;;;;;36.55;21.67;;;0.20;93.10;;;;;;5073446;28;20166;-48
2023/12/02 02:38:31;;;;;;;37.45;21.42;;;0.20;93.00;;;;;;5057490;28;20044;-48
2023/12/02 02:40:59;;;;;;;33.85;19.92;;;0.20;93.10;;;;;;5053794;28;20421;-48
2023/12/02 02:43:25;;;;;;;36.20;20.80;;;0.20;93.10;;;;;;5053409;28;20622;-51
2023/12/02 02:45:52;;;;;;;34.58;20.60;;;0.20;93.10;;;;;;5054038;28;20045;-47
2023/12/02 02:48:18;;;;;;;36.60;21.13;;;0.20;93.10;;;;;;5053101;28;20027;-48
2023/12/02 02:50:48;;;;;;;33.13;20.60;;;0.20;93.10;;;;;;5053551;28;20033;-48
2023/12/02 02:53:22;;;;;;;33.40;20.70;;;0.20;93.10;;;;;;5059332;28;20053;-52
2023/12/02 02:55:50;;;;;;;32.72;19.75;;;0.20;93.00;;;;;;5036621;28;20099;-48
2023/12/02 02:58:16;;;;;;;35.38;19.63;;;0.20;93.00;;;;;;5053282;28;20033;-50
2023/12/02 03:00:44;;;;;;;35.95;19.33;;;0.20;93.00;;;;;;5053482;28;20458;-51
2023/12/02 03:03:13;;;;;;;29.63;17.45;;;0.30;93.00;;;;;;5054785;28;20107;-50
2023/12/02 03:05:40;;;;;;;30.88;19.25;;;0.30;93.00;;;;;;5069804;28;20366;-48
2023/12/02 03:08:09;;;;;;;35.97;21.40;;;0.30;93.00;;;;;;5090814;28;20028;-48
2023/12/02 03:10:38;;;;;;;32.88;19.05;;;0.30;93.00;;;;;;5092145;28;20077;-54
2023/12/02 03:13:04;;;;;;;32.75;17.75;;;0.30;92.90;;;;;;5065046;28;20016;-49
2023/12/02 03:15:31;;;;;;;32.05;18.55;;;0.30;92.90;;;;;;5092930;28;20372;-49
2023/12/02 03:17:59;;;;;;;32.40;18.92;;;0.40;92.90;;;;;;5065665;28;20080;-50
2023/12/02 03:20:26;;;;;;;30.05;17.50;;;0.30;93.00;;;;;;5064252;28;20028;-46
2023/12/02 03:22:54;;;;;;;30.35;18.10;;;0.40;92.90;;;;;;5072421;28;20059;-46
2023/12/02 03:25:20;;;;;;;28.45;16.67;;;0.30;92.90;;;;;;5065672;28;20116;-48
2023/12/02 03:27:47;;;;;;;29.15;16.75;;;0.30;92.90;;;;;;5052955;28;20100;-49
2023/12/02 03:30:13;;;;;;;29.23;17.52;;;0.30;92.90;;;;;;5035459;28;20365;-47
2023/12/02 03:32:39;;;;;;;25.35;15.30;;;0.30;92.80;;;;;;5052964;28;20029;-46
2023/12/02 03:35:08;;;;;;;29.73;17.55;;;0.30;92.90;;;;;;5065512;28;20036;-48
2023/12/02 03:37:35;;;;;;;;;;;0.40;92.90;;;;;;5071695;28;20099;-47
2023/12/02 03:40:04;;;;;;;26.95;15.43;;;0.40;92.90;;;;;;5055760;28;19904;-46
2023/12/02 03:42:32;;;;;;;27.67;15.95;;;0.40;92.80;;;;;;5072643;28;20483;-46
2023/12/02 03:45:01;;;;;;;27.33;14.20;;;0.30;92.80;;;;;;5060211;28;20064;-46
2023/12/02 03:47:28;;;;;;;26.17;15.75;;;0.30;92.80;;;;;;5077709;28;20020;-47
2023/12/02 03:49:55;;;;;;;26.10;15.15;;;0.40;92.80;;;;;;5055223;28;20035;-46
2023/12/02 03:52:22;;;;;;;25.05;15.65;;;0.40;92.90;;;;;;5074183;28;20027;-46
2023/12/02 03:54:49;;;;;;;24.23;15.35;;;0.30;92.90;;;;;;5074333;28;20036;-46
2023/12/02 03:57:15;;;;;;;27.15;16.77;;;0.40;92.90;;;;;;5054395;28;20036;-50
2023/12/02 03:59:42;;;;;;;26.27;15.80;;;0.40;92.90;;;;;;5072120;28;20020;-47
2023/12/02 04:02:09;;;;;;;27.00;16.05;;;0.40;93.00;;;;;;5081654;28;20471;-46
2023/12/02 04:04:35;;;;;;;25.42;15.23;;;0.40;92.90;;;;;;5081231;28;20055;-48
2023/12/02 04:07:02;;;;;;;29.15;16.13;;;0.40;92.90;;;;;;5056530;28;20451;-46
2023/12/02 04:09:30;;;;;;;25.13;15.27;;;0.40;92.90;;;;;;5072796;28;20464;-52
2023/12/02 04:11:57;;;;;;;24.77;14.38;;;0.40;92.90;;;;;;5050495;28;20044;-49
2023/12/02 04:14:24;;;;;;;22.30;13.98;;;0.40;92.90;;;;;;5052559;28;20504;-49
2023/12/02 04:16:50;;;;;;;25.65;15.45;;;0.40;92.90;;;;;;5050774;28;20145;-51
2023/12/02 04:19:17;;;;;;;23.63;14.57;;;0.40;92.80;;;;;;5065960;28;20797;-49
2023/12/02 04:21:45;;;;;;;24.55;14.20;;;0.40;92.80;;;;;;5052732;28;20110;-47
2023/12/02 04:24:13;;;;;;;21.70;12.57;;;0.40;92.80;;;;;;5048361;28;20454;-51
2023/12/02 04:26:41;;;;;;;22.98;13.45;;;0.40;92.80;;;;;;5074636;28;20039;-47
2023/12/02 04:29:09;;;;;;;20.30;12.10;;;0.40;92.70;;;;;;5079463;28;20402;-47
2023/12/02 04:31:41;;;;;;;24.42;13.70;;;0.40;92.80;;;;;;5078349;28;20353;-50
2023/12/02 04:34:08;;;;;;;21.05;13.00;;;0.40;92.80;;;;;;5080035;28;20020;-52
2023/12/02 04:36:36;;;;;;;27.75;16.48;;;0.40;92.70;;;;;;5088738;28;20035;-49
2023/12/02 04:39:04;;;;;;;27.63;14.75;;;0.40;92.70;;;;;;5058753;28;20381;-49
2023/12/02 04:41:31;;;;;;;21.88;13.82;;;0.40;92.80;;;;;;5052181;28;20453;-51
2023/12/02 04:43:59;;;;;;;31.98;19.90;;;0.40;92.70;;;;;;5052061;28;20021;-50
2023/12/02 04:46:28;;;;;;;29.70;17.40;;;0.40;92.70;;;;;;5052044;28;20080;-50
2023/12/02 04:48:55;;;;;;;33.20;16.63;;;0.40;92.70;;;;;;5069301;28;20072;-51
2023/12/02 04:51:21;;;;;;;31.30;17.38;;;0.40;92.90;;;;;;5073648;28;20032;-47
2023/12/02 04:53:49;;;;;;;23.90;13.52;;;0.40;92.80;;;;;;5075843;28;20039;-47
2023/12/02 04:56:17;;;;;;;21.58;13.90;;;0.40;92.80;;;;;;5057357;28;20465;-49
2023/12/02 04:58:48;;;;;;;23.38;13.40;;;0.40;92.80;;;;;;5055836;28;20033;-49
2023/12/02 05:01:13;;;;;;;21.92;12.52;;;0.40;92.80;;;;;;5074059;28;20063;-50
2023/12/02 05:03:40;;;;;;;24.30;14.88;;;0.40;92.80;;;;;;5058974;28;20715;-48
2023/12/02 05:06:13;;;;;;;19.98;13.02;;;0.50;92.80;;;;;;5055580;28;20050;-49
2023/12/02 05:08:38;;;;;;;31.77;18.45;;;0.40;92.80;;;;;;5037678;28;20029;-47
2023/12/02 05:11:05;;;;;;;29.42;17.77;;;0.40;92.80;;;;;;5071937;28;20040;-48
2023/12/02 05:13:33;;;;;;;26.95;16.00;;;0.40;92.80;;;;;;5073069;28;20029;-49
2023/12/02 05:16:01;;;;;;;25.05;13.70;;;0.50;92.80;;;;;;5054841;28;20043;-47
2023/12/02 05:18:27;;;;;;;23.55;14.65;;;0.50;92.80;;;;;;5067433;28;20115;-48
2023/12/02 05:20:54;;;;;;;25.30;13.60;;;0.40;92.70;;;;;;5080907;28;20093;-49
2023/12/02 05:23:20;;;;;;;21.90;13.25;;;0.50;92.70;;;;;;5081042;28;20085;-49
2023/12/02 05:25:48;;;;;;;19.63;12.73;;;0.40;92.70;;;;;;5094420;28;20031;-49
2023/12/02 05:28:15;;;;;;;20.55;12.32;;;0.50;92.80;;;;;;5095068;28;20372;-50
2023/12/02 05:30:41;;;;;;;22.67;13.63;;;0.50;92.70;;;;;;5095170;28;20019;-48
2023/12/02 05:33:08;;;;;;;28.02;14.90;;;0.40;92.60;;;;;;5106075;28;20106;-52
2023/12/02 05:35:34;;;;;;;30.05;17.88;;;0.40;92.70;;;;;;5095124;28;20424;-49
2023/12/02 05:38:01;;;;;;;44.40;24.08;;;0.40;92.70;;;;;;5093083;28;20020;-49
2023/12/02 05:40:29;;;;;;;45.95;25.08;;;0.50;92.80;;;;;;5101799;28;20034;-48
2023/12/02 05:42:57;;;;;;;39.45;21.88;;;0.50;92.70;;;;;;5097503;28;20348;-47
2023/12/02 05:45:24;;;;;;;46.83;23.92;;;0.40;92.60;;;;;;5105288;28;20047;-48
2023/12/02 05:47:50;;;;;;;38.35;21.88;;;0.40;92.70;;;;;;5070260;28;20036;-49
2023/12/02 05:50:17;;;;;;;34.72;21.20;;;0.50;92.70;;;;;;5088793;28;20381;-52
2023/12/02 05:52:44;;;;;;;27.92;18.65;;;0.40;92.60;;;;;;5074862;28;20029;-49
2023/12/02 05:55:12;;;;;;;25.17;15.38;;;0.40;92.70;;;;;;5074612;28;20437;-51
2023/12/02 05:57:38;;;;;;;31.65;15.77;;;0.40;92.70;;;;;;5070154;28;20586;-50
2023/12/02 06:00:05;;;;;;;24.67;14.32;;;0.40;92.70;;;;;;5101084;28;20055;-50
2023/12/02 06:02:33;;;;;;;22.25;13.23;;;0.40;92.80;;;;;;5104853;28;20016;-49
2023/12/02 06:05:00;;;;;;;26.83;14.95;;;0.40;92.80;;;;;;5083113;28;20051;-56
2023/12/02 06:07:27;;;;;;;23.55;15.27;;;0.40;92.80;;;;;;5089170;28;20029;-53
2023/12/02 06:09:55;;;;;;;21.17;12.85;;;0.40;92.70;;;;;;5040213;28;20095;-50
2023/12/02 06:12:25;;;;;;;23.67;13.57;;;0.40;92.80;;;;;;5089332;28;20028;-53
2023/12/02 06:14:55;;;;;;;24.55;14.18;;;0.40;92.60;;;;;;5087714;28;20023;-53
2023/12/02 06:17:22;;;;;;;22.50;14.38;;;0.40;92.60;;;;;;5094183;28;20048;-56
2023/12/02 06:19:49;;;;;;;20.73;13.70;;;0.40;92.70;;;;;;5102632;28;20456;-56
2023/12/02 06:22:16;;;;;;;21.90;13.90;;;0.40;92.80;;;;;;5097136;28;20368;-55
2023/12/02 06:24:43;;;;;;;22.08;14.43;;;0.50;92.80;;;;;;5093917;28;20027;-54
2023/12/02 06:27:09;;;;;;;22.33;14.73;;;0.40;92.70;;;;;;5094037;28;20032;-55
2023/12/02 06:29:36;;;;;;;24.67;14.65;;;0.40;92.70;;;;;;5079194;28;20076;-56
2023/12/02 06:32:02;;;;;;;26.90;14.63;;;0.40;92.70;;;;;;5086151;28;20031;-55
2023/12/02 06:34:30;;;;;;;22.00;14.43;;;0.40;92.70;;;;;;5093307;28;20059;-54
2023/12/02 06:36:58;;;;;;;24.80;15.38;;;0.40;92.70;;;;;;5072020;28;20028;-52
2023/12/02 06:39:25;;;;;;;25.65;14.90;;;0.40;92.70;;;;;;5092451;28;20074;-55
2023/12/02 06:41:52;;;;;;;23.35;14.80;;;0.40;92.80;;;;;;5075728;28;20024;-55
2023/12/02 06:44:22;;;;;;;26.23;15.20;;;0.50;92.80;;;;;;5091716;28;20033;-55
2023/12/02 06:46:47;;;;;;;26.63;16.08;;;0.50;92.80;;;;;;5092933;28;20395;-56
2023/12/02 06:49:13;;;;;;;26.13;15.20;;;0.50;92.80;;;;;;5091835;28;20019;-55
2023/12/02 06:51:40;;;;;;;27.88;19.48;;;0.50;92.80;;;;;;5095130;28;20111;-57
2023/12/02 06:54:07;;;;;;;28.63;19.65;;;0.50;92.80;;;;;;5104437;28;20028;-53
2023/12/02 06:56:34;;;;;;;31.70;21.02;;;0.50;92.70;;;;;;5102347;28;20047;-56
2023/12/02 06:59:02;;;;;;;30.23;19.85;;;0.50;92.60;;;;;;5095910;28;20065;-56
2023/12/02 07:01:30;;;;;;;24.63;16.58;;;0.40;92.60;;;;;;5079514;28;20020;-56
2023/12/02 07:04:04;;;;;;;23.65;15.45;;;0.40;92.70;;;;;;5086298;28;20392;-54
2023/12/02 07:06:31;;;;;;;29.38;18.73;;;0.40;92.80;;;;;;5067362;28;20035;-54
2023/12/02 07:08:58;;;;;;;27.23;16.55;;;0.50;92.70;;;;;;5087654;28;20023;-55
2023/12/02 07:11:29;;;;;;;28.85;17.38;;;0.40;92.60;;;;;;5095918;28;20637;-55
2023/12/02 07:13:57;;;;;;;27.55;17.40;;;0.50;92.80;;;;;;5090794;28;20032;-55
2023/12/02 07:16:27;;;;;;;26.42;15.73;;;0.40;92.70;;;;;;5092380;28;20357;-56
2023/12/02 07:18:55;;;;;;;27.42;15.18;;;0.40;92.80;;;;;;5057981;28;20469;-56
2023/12/02 07:21:22;;;;;;;25.92;17.00;;;0.50;92.90;;;;;;5088605;28;20020;-55
2023/12/02 07:23:49;;;;;;;28.17;16.75;;;0.50;92.90;;;;;;5085610;28;20023;-56
2023/12/02 07:26:16;;;;;;;28.42;16.30;;;0.50;92.80;;;;;;5090434;28;20032;-56
2023/12/02 07:28:44;;;;;;;25.50;16.20;;;0.50;92.90;;;;;;5077966;28;20035;-55
2023/12/02 07:31:16;;;;;;;27.55;18.02;;;0.50;92.80;;;;;;5081346;28;20090;-56
2023/12/02 07:33:43;;;;;;;30.90;19.40;;;0.50;92.70;;;;;;5071409;28;20035;-57
2023/12/02 07:36:09;;;;;;;30.20;17.85;;;0.50;92.70;;;;;;5075600;28;20086;-56
2023/12/02 07:38:36;;;;;;;28.35;17.08;;;0.50;92.60;;;;;;5073601;28;20035;-57
2023/12/02 07:41:04;;;;;;;28.75;18.90;;;0.40;92.60;;;;;;5091771;28;20132;-55
2023/12/02 07:43:31;;;;;;;28.70;17.58;;;0.40;92.60;;;;;;5093615;28;20031;-56
2023/12/02 07:45:56;;;;;;;29.60;18.20;;;0.50;92.80;;;;;;5073888;28;20035;-56
2023/12/02 07:48:26;;;;;;;29.77;17.05;;;0.50;92.80;;;;;;5074142;28;20103;-56
2023/12/02 07:50:52;;;;;;;31.08;17.10;;;0.50;92.80;;;;;;5084433;28;20054;-51
2023/12/02 07:53:19;;;;;;;31.90;19.75;;;0.50;92.80;;;;;;5093373;28;20341;-55
2023/12/02 07:55:45;;;;;;;31.80;18.77;;;0.50;92.80;;;;;;5088857;28;20039;-57
2023/12/02 07:58:13;;;;;;;31.33;18.92;;;0.50;92.80;;;;;;5091944;28;20031;-56
2023/12/02 08:00:41;;;;;;;35.97;20.38;;;0.50;92.70;;;;;;5091949;28;20119;-57
2023/12/02 08:03:08;;;;;;;37.55;23.75;;;0.50;92.70;;;;;;5090237;28;20028;-56
2023/12/02 08:05:35;;;;;;;33.97;19.92;;;0.50;92.60;;;;;;5091329;28;20444;-57
2023/12/02 08:08:02;;;;;;;33.78;20.25;;;0.50;92.50;;;;;;5094820;28;20479;-56
2023/12/02 08:10:29;;;;;;;36.28;20.88;;;0.50;92.40;;;;;;5092624;28;20121;-55
2023/12/02 08:12:54;;;;;;;32.35;19.17;;;0.50;92.40;;;;;;5092467;28;20675;-51
2023/12/02 08:15:21;;;;;;;34.00;22.30;;;0.50;92.40;;;;;;5089983;28;20032;-52
2023/12/02 08:17:49;;;;;;;33.13;21.20;;;0.60;92.50;;;;;;5085635;28;20070;-53
2023/12/02 08:20:16;;;;;;;34.00;19.90;;;0.60;92.50;;;;;;5092705;28;20020;-55
2023/12/02 08:22:43;;;;;;;31.38;18.55;;;0.60;92.40;;;;;;5071239;28;20040;-54
2023/12/02 08:25:12;;;;;;;35.60;20.48;;;0.60;92.40;;;;;;5056436;28;20425;-52
2023/12/02 08:27:39;;;;;;;35.13;20.67;;;0.60;92.40;;;;;;5054591;28;20021;-55
2023/12/02 08:30:08;;;;;;;32.78;19.90;;;0.60;92.30;;;;;;5071728;28;20043;-56
2023/12/02 08:32:35;;;;;;;31.83;20.20;;;0.60;92.30;;;;;;5073752;28;20543;-54
2023/12/02 08:35:03;;;;;;;30.33;20.17;;;0.60;92.30;;;;;;5074872;28;20037;-57
2023/12/02 08:37:29;;;;;;;34.10;20.05;;;0.60;92.30;;;;;;5075539;28;20020;-51
2023/12/02 08:39:55;;;;;;;34.05;20.65;;;0.70;92.40;;;;;;5073622;28;20464;-56
2023/12/02 08:42:22;;;;;;;29.75;18.40;;;0.70;92.30;;;;;;5061163;28;20526;-56
2023/12/02 08:44:47;;;;;;;34.83;20.33;;;0.70;92.20;;;;;;5052574;28;20373;-55
2023/12/02 08:47:16;;;;;;;33.55;20.48;;;0.70;92.30;;;;;;5074056;28;20020;-52
2023/12/02 08:49:43;;;;;;;33.22;20.58;;;0.70;92.30;;;;;;5033200;28;20090;-56
2023/12/02 08:52:10;;;;;;;29.95;20.33;;;0.80;92.30;;;;;;5054625;28;20511;-57
2023/12/02 08:54:40;;;;;;;29.85;18.10;;;0.80;92.10;;;;;;5056246;28;20037;-56
2023/12/02 08:57:05;;;;;;;34.58;20.85;;;0.80;92.20;;;;;;5074469;28;20487;-56
2023/12/02 08:59:32;;;;;;;38.83;21.40;;;0.80;92.10;;;;;;5068708;28;20039;-54
2023/12/02 09:02:01;;;;;;;36.75;21.05;;;0.90;92.10;;;;;;5071492;28;20542;-57
2023/12/02 09:04:28;;;;;;;42.67;26.13;;;0.80;92.00;;;;;;5063979;28;20041;-57
2023/12/02 09:06:58;;;;;;;46.55;26.08;;;0.80;92.00;;;;;;5068645;28;20158;-56
2023/12/02 09:09:26;;;;;;;42.30;23.08;;;0.90;92.00;;;;;;5062675;28;20042;-57
2023/12/02 09:11:55;;;;;;;32.78;21.55;;;0.80;92.00;;;;;;5074760;28;20025;-57
2023/12/02 09:14:22;;;;;;;34.20;23.13;;;0.90;92.10;;;;;;5056849;28;20028;-57
2023/12/02 09:16:51;;;;;;;37.88;22.40;;;0.90;92.00;;;;;;5072499;28;20032;-55
2023/12/02 09:19:32;;;;;;;34.15;21.05;;;0.90;92.10;;;;;;5077407;28;20372;-57
2023/12/02 09:21:59;;;;;;;32.95;20.77;;;1.00;92.00;;;;;;5075529;28;20047;-57
2023/12/02 09:24:37;;;;;;;32.83;20.85;;;0.90;91.90;;;;;;5073034;28;20157;-55
2023/12/02 09:27:08;;;;;;;35.13;21.20;;;1.00;92.00;;;;;;5084292;28;20020;-57
2023/12/02 09:29:35;;;;;;;41.17;24.52;;;1.00;91.80;;;;;;5094370;28;20445;-57
2023/12/02 09:32:22;;;;;;;34.05;22.25;;;1.00;91.80;;;;;;5077392;28;20051;-51
2023/12/02 09:35:09;;;;;;;32.85;19.83;;;1.00;91.80;;;;;;5075108;28;20059;-54
2023/12/02 09:37:54;;;;;;;30.60;20.35;;;1.00;91.70;;;;;;5070657;28;20059;-56
2023/12/02 09:40:36;;;;;;;34.85;22.30;;;1.00;91.90;;;;;;5075111;28;20408;-56
2023/12/02 09:43:26;;;;;;;32.67;19.83;;;0.90;91.80;;;;;;5074669;28;20314;-55
2023/12/02 09:46:17;;;;;;;33.97;20.98;;;1.00;91.70;;;;;;5074336;28;20029;-56
2023/12/02 09:49:21;;;;;;;32.38;20.15;;;1.00;91.70;;;;;;5074646;28;20040;-52
2023/12/02 09:52:30;;;;;;;36.90;20.77;;;1.20;91.90;;;;;;5074837;28;20357;-53
2023/12/02 09:55:16;;;;;;;68.53;36.92;;;1.20;91.80;;;;;;5074675;28;20032;-50
2023/12/02 09:58:13;;;;;;;51.75;29.00;;;1.10;91.50;;;;;;5056590;28;20040;-51
2023/12/02 10:01:05;;;;;;;37.85;21.95;;;1.20;91.60;;;;;;5074594;28;20017;-55
2023/12/02 10:04:06;;;;;;;45.40;24.55;;;1.20;91.40;;;;;;5074284;28;20111;-52
2023/12/02 10:07:03;;;;;;;35.85;23.42;;;1.20;91.20;;;;;;5063478;28;20036;-54
2023/12/02 10:10:09;;;;;;;56.28;28.17;;;1.20;91.20;;;;;;5073862;28;20111;-51
2023/12/02 10:13:03;;;;;;;67.20;32.25;;;1.20;91.10;;;;;;5074363;28;20025;-55
2023/12/02 10:15:34;;;;;;;77.10;34.47;;;1.20;91.20;;;;;;5057239;28;20111;-54
2023/12/02 10:18:20;;;;;;;44.35;25.83;;;1.10;91.10;;;;;;5066774;28;20103;-51
2023/12/02 10:21:02;;;;;;;48.70;26.27;;;1.20;91.10;;;;;;5041560;28;20445;-50
2023/12/02 10:23:57;;;;;;;48.45;25.33;;;1.20;91.10;;;;;;5048753;28;20450;-50
2023/12/02 10:26:43;;;;;;;40.10;21.33;;;1.20;91.10;;;;;;5084796;28;20024;-52
2023/12/02 10:29:29;;;;;;;37.05;24.23;;;1.10;90.90;;;;;;5086910;28;20012;-56
2023/12/02 10:32:26;;;;;;;29.85;20.88;;;1.10;90.90;;;;;;5082070;28;20033;-55
2023/12/02 10:34:59;;;;;;;32.85;21.80;;;1.00;91.00;;;;;;5073912;28;20085;-56
2023/12/02 10:37:43;;;;;;;30.17;19.17;;;1.00;91.10;;;;;;5089229;28;20032;-50
2023/12/02 10:40:26;;;;;;;32.65;20.45;;;1.00;91.10;;;;;;5056628;28;20353;-55
2023/12/02 10:43:05;;;;;;;30.95;18.90;;;0.90;90.70;;;;;;5084323;28;20040;-51
2023/12/02 10:45:36;;;;;;;35.78;21.40;;;0.90;90.70;;;;;;5084271;28;20252;-55
2023/12/02 10:48:12;;;;;;;38.47;21.85;;;0.90;90.80;;;;;;5080304;28;20126;-54
2023/12/02 10:50:42;;;;;;;32.97;20.63;;;0.70;90.80;;;;;;5050870;28;20450;-57
2023/12/02 10:53:09;;;;;;;;;;;0.60;91.00;;;;;;5064112;28;20388;-57
2023/12/02 10:55:37;;;;;;;34.00;20.42;;;0.60;91.30;;;;;;5082996;28;19927;-54
2023/12/02 10:58:06;;;;;;;31.00;18.30;;;0.60;91.40;;;;;;5046978;28;20032;-52
2023/12/02 11:00:42;;;;;;;31.02;17.80;;;0.70;91.60;;;;;;5048399;28;20051;-55
2023/12/02 11:03:10;;;;;;;30.02;19.33;;;0.60;91.60;;;;;;5070886;28;20447;-52
2023/12/02 11:06:15;;;;;;;27.07;17.43;;;0.70;91.70;;;;;;5083096;28;20060;-56
2023/12/02 11:09:13;;;;;;;27.13;18.33;;;0.70;91.80;;;;;;5072206;28;20028;-52
2023/12/02 11:12:10;;;;;;;24.50;16.15;;;0.80;92.00;;;;;;5078256;28;20525;-57
2023/12/02 11:14:43;;;;;;;22.85;15.43;;;0.90;91.80;;;;;;5070547;28;20051;-55
2023/12/02 11:18:03;;;;;;;26.58;18.08;;;1.00;91.80;;;;;;5067024;28;20036;-58
2023/12/02 11:20:52;;;;;;;30.30;19.30;;;1.10;91.80;;;;;;4971290;28;20065;-57
2023/12/02 11:23:55;;;;;;;25.08;16.13;;;1.10;91.70;;;;;;4970702;28;20045;-57
2023/12/02 11:27:08;;;;;;;24.73;15.43;;;1.20;91.90;;;;;;4969948;28;20054;-56
2023/12/02 11:30:18;;;;;;;20.02;12.57;;;1.40;91.60;;;;;;4964727;28;20434;-57
2023/12/02 11:33:20;;;;;;;20.17;13.20;;;1.40;91.40;;;;;;4966233;28;20038;-57
2023/12/02 11:36:05;;;;;;;20.38;12.52;;;1.40;91.60;;;;;;4974471;28;20109;-56
2023/12/02 11:39:24;;;;;;;26.83;15.73;;;1.40;91.40;;;;;;4945818;28;20031;-52
2023/12/02 11:41:55;;;;;;;21.48;12.65;;;1.40;91.30;;;;;;4936191;28;20054;-50
2023/12/02 11:44:48;;;;;;;19.00;13.43;;;1.40;91.30;;;;;;4979407;28;20034;-53
2023/12/02 11:48:00;;;;;;;16.90;11.40;;;1.40;91.20;;;;;;4972001;28;20050;-55
2023/12/02 11:50:59;;;;;;;18.77;12.30;;;1.40;91.30;;;;;;4979530;28;20058;-53
2023/12/02 11:53:59;;;;;;;18.23;12.35;;;1.50;91.10;;;;;;4960244;28;20043;-52
2023/12/02 11:56:26;;;;;;;19.10;12.65;;;1.50;91.00;;;;;;5061784;28;20020;-54
2023/12/02 11:59:03;;;;;;;18.33;11.95;;;1.50;91.00;;;;;;5058659;28;20039;-57
2023/12/02 12:01:57;;;;;;;17.20;11.23;;;1.60;90.70;;;;;;5068437;28;20116;-53
2023/12/02 12:05:00;;;;;;;16.00;10.65;;;1.60;90.70;;;;;;5073082;28;20105;-55
2023/12/02 12:07:55;;;;;;;18.05;12.13;;;1.70;90.70;;;;;;5069839;28;20553;-51
2023/12/02 12:10:49;;;;;;;23.35;13.70;;;1.60;90.20;;;;;;5060392;28;20426;-52
2023/12/02 12:13:25;;;;;;;19.83;12.93;;;1.40;90.20;;;;;;5064732;28;20024;-53
2023/12/02 12:15:52;;;;;;;19.15;13.10;;;1.30;90.30;;;;;;5059472;28;20032;-56
2023/12/02 12:18:18;;;;;;;17.90;12.18;;;1.10;90.40;;;;;;5063169;28;20365;-55
2023/12/02 12:20:52;;;;;;;17.02;10.77;;;1.00;90.60;;;;;;5070231;28;20020;-56
2023/12/02 12:23:29;;;;;;;17.30;11.95;;;1.00;90.80;;;;;;5061282;28;20059;-56
2023/12/02 12:25:58;;;;;;;16.88;11.25;;;1.00;90.90;;;;;;5072304;28;20040;-56
2023/12/02 12:28:28;;;;;;;19.97;11.97;;;0.90;90.70;;;;;;5034924;28;20047;-55
2023/12/02 12:30:57;;;;;;;18.35;10.90;;;0.90;90.80;;;;;;5049508;28;20291;-55
2023/12/02 12:33:25;;;;;;;17.43;12.50;;;0.90;90.90;;;;;;5048429;28;20126;-57
2023/12/02 12:35:53;;;;;;;24.38;13.73;;;0.90;91.10;;;;;;5054297;28;20044;-57
2023/12/02 12:38:22;;;;;;;19.70;13.40;;;0.90;91.20;;;;;;5069837;28;20028;-56
2023/12/02 12:40:50;;;;;;;21.08;13.27;;;0.90;91.20;;;;;;5028619;28;20127;-55
2023/12/02 12:43:17;;;;;;;20.05;12.20;;;0.90;90.80;;;;;;5062057;28;20345;-55
2023/12/02 12:45:51;;;;;;;19.88;13.48;;;0.90;90.90;;;;;;5051474;28;20036;-53
2023/12/02 12:48:25;;;;;;;19.58;12.70;;;0.90;90.70;;;;;;5047621;28;20749;-57
2023/12/02 12:50:53;;;;;;;19.70;13.93;;;1.00;90.60;;;;;;5035873;28;20037;-55
2023/12/02 12:53:27;;;;;;;19.33;13.90;;;0.90;90.40;;;;;;5063413;28;20327;-57
2023/12/02 12:56:05;;;;;;;20.27;11.70;;;0.90;90.40;;;;;;5028990;28;20477;-55
2023/12/02 12:58:32;;;;;;;25.15;13.85;;;0.90;90.40;;;;;;5036691;28;20082;-54
2023/12/02 13:01:08;;;;;;;21.17;13.48;;;0.90;90.50;;;;;;5063593;28;20118;-53